Time;durP1;ratioP1;P1;durP2;ratioP2;P2;SDS_P1;SDS_P2;PMS_P1;PMS_P2;Temp;Humidity;BMP_temperature;BMP_pressure;BME280_temperature;BME280_humidity;BME280_pressure;Samples;Min_cycle;Max_cycle;Signal;HPM_P1;HPM_P2
2024/01/25 00:00:54;;;;;;;16.67;4.03;;;;;;;7.41;100.00;100630.56;5548671;32;34155;-67
2024/01/25 00:03:57;;;;;;;16.50;4.18;;;;;;;7.58;100.00;100628.19;5548832;32;34117;-66
2024/01/25 00:07:00;;;;;;;14.80;3.80;;;;;;;7.57;100.00;100635.28;5548759;32;34112;-66
2024/01/25 00:10:07;;;;;;;22.15;4.12;;;;;;;7.80;100.00;100635.75;5547855;32;34963;-68
2024/01/25 00:13:10;;;;;;;15.07;4.10;;;;;;;7.84;100.00;100645.09;5548504;32;34032;-68
2024/01/25 00:16:13;;;;;;;13.23;3.62;;;;;;;7.84;100.00;100634.53;5548559;32;33978;-66
2024/01/25 00:19:16;;;;;;;15.57;3.83;;;;;;;7.81;100.00;100640.06;5549001;32;34143;-67
2024/01/25 00:22:19;;;;;;;18.62;4.12;;;;;;;7.85;100.00;100637.00;5548776;32;34167;-65
2024/01/25 00:25:22;;;;;;;14.20;3.33;;;;;;;7.96;100.00;100632.53;5548477;32;34402;-67
2024/01/25 00:28:28;;;;;;;15.15;3.92;;;;;;;7.94;100.00;100626.56;5547504;32;34700;-69
2024/01/25 00:31:31;;;;;;;18.48;3.70;;;;;;;7.85;100.00;100647.56;5548072;32;34022;-67
2024/01/25 00:34:35;;;;;;;20.25;3.92;;;;;;;7.75;100.00;100659.12;5548162;32;35069;-68
2024/01/25 00:37:38;;;;;;;16.25;3.55;;;;;;;7.84;100.00;100637.97;5548555;32;35001;-67
2024/01/25 00:40:41;;;;;;;13.98;3.08;;;;;;;7.92;100.00;100647.84;5548215;32;34345;-67
2024/01/25 00:43:44;;;;;;;16.20;3.58;;;;;;;7.93;100.00;100660.06;5547381;32;34061;-67
2024/01/25 00:46:47;;;;;;;14.35;3.28;;;;;;;7.84;100.00;100656.47;5549829;32;34157;-67
2024/01/25 00:49:50;;;;;;;11.12;3.42;;;;;;;7.71;100.00;100671.78;5551186;32;34111;-68
2024/01/25 00:52:54;;;;;;;18.95;3.85;;;;;;;7.64;100.00;100668.06;5550987;32;34747;-68
2024/01/25 00:55:57;;;;;;;15.68;3.33;;;;;;;7.68;100.00;100666.81;5550921;32;34774;-67
2024/01/25 00:59:00;;;;;;;16.00;3.53;;;;;;;7.63;100.00;100657.63;5550950;32;33986;-68
2024/01/25 01:02:05;;;;;;;15.20;3.53;;;;;;;7.58;100.00;100659.88;5550886;32;33968;-67
2024/01/25 01:05:12;;;;;;;19.65;3.78;;;;;;;7.46;100.00;100653.06;5550934;32;34421;-66
2024/01/25 01:08:15;;;;;;;16.70;3.40;;;;;;;7.39;100.00;100644.91;5550834;32;35142;-66
2024/01/25 01:11:19;;;;;;;16.50;3.70;;;;;;;7.32;100.00;100643.78;5550589;32;34254;-67
2024/01/25 01:14:21;;;;;;;15.73;3.37;;;;;;;7.27;100.00;100636.28;5550769;32;34811;-67
2024/01/25 01:17:24;;;;;;;17.30;3.83;;;;;;;7.45;100.00;100638.22;5550697;32;34090;-66
2024/01/25 01:20:27;;;;;;;14.73;3.30;;;;;;;7.57;100.00;100634.44;5550867;32;34304;-66
2024/01/25 01:23:30;;;;;;;16.05;3.60;;;;;;;7.52;100.00;100626.09;5550665;32;34117;-65
2024/01/25 01:26:35;;;;;;;15.85;3.65;;;;;;;7.61;100.00;100617.34;5550629;32;34114;-66
2024/01/25 01:29:37;;;;;;;16.58;3.25;;;;;;;7.78;100.00;100617.44;5550583;32;34009;-67
2024/01/25 01:32:40;;;;;;;16.17;3.37;;;;;;;7.72;100.00;100607.44;5549920;32;34709;-68
2024/01/25 01:35:43;;;;;;;17.85;3.53;;;;;;;7.88;100.00;100617.41;5550619;32;33979;-67
2024/01/25 01:38:46;;;;;;;19.92;3.78;;;;;;;7.85;100.00;100618.50;5550619;32;34122;-66
2024/01/25 01:41:49;;;;;;;20.85;3.50;;;;;;;7.93;100.00;100614.31;5550357;32;35916;-66
2024/01/25 01:44:52;;;;;;;19.15;3.80;;;;;;;7.80;100.00;100617.28;5550519;32;34142;-66
2024/01/25 01:47:56;;;;;;;13.27;3.20;;;;;;;7.76;100.00;100616.75;5550847;32;34081;-66
2024/01/25 01:51:00;;;;;;;17.08;3.62;;;;;;;7.63;100.00;100608.31;5550511;32;35147;-66
2024/01/25 01:54:05;;;;;;;16.12;2.90;;;;;;;7.64;100.00;100609.97;5550448;32;34027;-66
2024/01/25 01:57:08;;;;;;;20.48;3.72;;;;;;;7.69;100.00;100612.19;5549633;32;34983;-66
2024/01/25 02:00:15;;;;;;;18.08;3.80;;;;;;;7.80;100.00;100604.06;5550237;32;34033;-67
2024/01/25 02:03:18;;;;;;;17.80;3.55;;;;;;;7.94;100.00;100610.72;5550343;32;34783;-68
2024/01/25 02:06:23;;;;;;;19.83;3.92;;;;;;;7.76;100.00;100600.91;5550347;32;34000;-66
2024/01/25 02:09:26;;;;;;;14.95;3.42;;;;;;;7.82;100.00;100587.13;5550256;32;34115;-66
2024/01/25 02:12:29;;;;;;;16.17;3.45;;;;;;;7.61;100.00;100596.22;5550205;32;34484;-67
2024/01/25 02:15:32;;;;;;;17.30;3.37;;;;;;;7.63;100.00;100589.00;5549392;32;32254;-66
2024/01/25 02:18:35;;;;;;;18.35;3.62;;;;;;;7.76;100.00;100603.53;5550513;32;34717;-67
2024/01/25 02:21:38;;;;;;;14.98;3.05;;;;;;;7.75;100.00;100599.22;5550155;32;35510;-67
2024/01/25 02:24:41;;;;;;;14.20;3.20;;;;;;;7.63;100.00;100586.34;5550182;32;33995;-67
2024/01/25 02:27:44;;;;;;;13.85;3.40;;;;;;;7.60;100.00;100590.09;5550000;32;34099;-67
2024/01/25 02:30:48;;;;;;;18.77;3.35;;;;;;;7.69;100.00;100591.91;5550085;32;34024;-66
2024/01/25 02:33:50;;;;;;;15.07;3.35;;;;;;;7.62;100.00;100597.88;5550052;32;33985;-66
2024/01/25 02:36:54;;;;;;;14.65;3.70;;;;;;;7.70;100.00;100601.47;5550092;32;34050;-66
2024/01/25 02:39:57;;;;;;;13.70;3.42;;;;;;;7.61;100.00;100590.94;5550090;32;33684;-65
2024/01/25 02:43:00;;;;;;;16.95;3.30;;;;;;;7.59;100.00;100569.97;5549911;32;35017;-67
2024/01/25 02:46:02;;;;;;;20.52;3.92;;;;;;;7.57;100.00;100590.38;5550045;32;34026;-66
2024/01/25 02:49:05;;;;;;;15.27;3.30;;;;;;;7.53;100.00;100582.91;5549839;32;34001;-66
2024/01/25 02:52:08;;;;;;;13.93;3.30;;;;;;;7.38;100.00;100587.81;5549302;32;33997;-65
2024/01/25 02:55:12;;;;;;;17.20;3.72;;;;;;;7.45;100.00;100583.63;5549212;32;33845;-66
2024/01/25 02:58:14;;;;;;;16.10;4.07;;;;;;;7.38;100.00;100585.16;5550151;32;34181;-66
2024/01/25 03:01:18;;;;;;;20.12;3.62;;;;;;;7.25;100.00;100588.12;5548992;32;34672;-66
2024/01/25 03:04:21;;;;;;;13.90;3.15;;;;;;;7.31;100.00;100574.31;5549433;32;34650;-67
2024/01/25 03:07:24;;;;;;;18.52;3.80;;;;;;;7.31;100.00;100576.16;5549835;32;34134;-66
2024/01/25 03:10:27;;;;;;;18.08;3.72;;;;;;;7.37;100.00;100571.12;5549151;32;34722;-67
2024/01/25 03:13:30;;;;;;;16.87;3.53;;;;;;;7.60;100.00;100568.97;5549408;32;34377;-67
2024/01/25 03:16:32;;;;;;;15.52;3.45;;;;;;;7.65;100.00;100584.41;5549610;32;34009;-66
2024/01/25 03:19:35;;;;;;;18.52;4.03;;;;;;;7.68;100.00;100577.03;5549581;32;34080;-66
2024/01/25 03:22:38;;;;;;;18.27;3.60;;;;;;;7.59;100.00;100584.97;5549004;32;34030;-67
2024/01/25 03:25:41;;;;;;;18.20;3.33;;;;;;;7.43;100.00;100593.50;5548780;32;34007;-67
2024/01/25 03:28:44;;;;;;;17.35;3.67;;;;;;;7.35;100.00;100580.19;5549290;32;34637;-67
2024/01/25 03:31:47;;;;;;;17.45;3.58;;;;;;;7.39;100.00;100590.31;5549219;32;34120;-66
2024/01/25 03:34:50;;;;;;;15.70;3.22;;;;;;;7.32;100.00;100594.47;5548795;32;34227;-66
2024/01/25 03:37:54;;;;;;;17.45;3.50;;;;;;;7.42;100.00;100607.66;5549715;32;34145;-65
2024/01/25 03:40:58;;;;;;;18.33;3.83;;;;;;;7.40;100.00;100605.19;5548311;32;34726;-65
2024/01/25 03:44:01;;;;;;;17.75;3.87;;;;;;;7.33;100.00;100596.16;5549124;32;34770;-66
2024/01/25 03:47:04;;;;;;;19.00;3.80;;;;;;;7.32;100.00;100585.72;5548376;32;34907;-66
2024/01/25 03:50:08;;;;;;;15.38;3.62;;;;;;;7.39;100.00;100584.19;5549020;32;34765;-68
2024/01/25 03:53:11;;;;;;;14.77;3.10;;;;;;;7.54;100.00;100577.50;5549061;32;35042;-66
2024/01/25 03:56:17;;;;;;;15.48;3.10;;;;;;;7.65;100.00;100568.56;5549323;32;34786;-66
2024/01/25 03:59:19;;;;;;;15.38;3.58;;;;;;;7.70;100.00;100590.91;5548986;32;35052;-65
2024/01/25 04:02:22;;;;;;;18.55;3.62;;;;;;;7.55;100.00;100555.37;5548784;32;34112;-66
2024/01/25 04:05:26;;;;;;;15.02;3.10;;;;;;;7.58;100.00;100559.53;5547945;32;34790;-64
2024/01/25 04:08:29;;;;;;;18.60;3.60;;;;;;;7.70;100.00;100576.84;5548705;32;34804;-65
2024/01/25 04:11:32;;;;;;;16.92;3.50;;;;;;;7.78;100.00;100561.16;5548812;32;34292;-66
2024/01/25 04:14:35;;;;;;;21.05;4.05;;;;;;;7.85;100.00;100556.94;5548575;32;34290;-66
2024/01/25 04:17:38;;;;;;;14.90;3.30;;;;;;;7.90;100.00;100557.31;5548711;32;34478;-66
2024/01/25 04:20:41;;;;;;;20.30;3.47;;;;;;;7.92;100.00;100557.19;5549160;32;34629;-66
2024/01/25 04:23:45;;;;;;;20.45;3.87;;;;;;;8.08;100.00;100565.31;5550542;32;35013;-65
2024/01/25 04:26:48;;;;;;;16.10;3.45;;;;;;;8.13;100.00;100558.59;5551375;32;34693;-66
2024/01/25 04:29:51;;;;;;;14.55;3.33;;;;;;;8.14;100.00;100562.06;5550395;32;34866;-66
2024/01/25 04:32:53;;;;;;;15.75;3.50;;;;;;;8.08;100.00;100587.28;5551095;32;34666;-65
2024/01/25 04:35:59;;;;;;;18.02;3.47;;;;;;;8.11;100.00;100581.69;5551387;32;34193;-67
2024/01/25 04:39:02;;;;;;;17.83;3.75;;;;;;;8.02;100.00;100571.19;5550521;32;34100;-66
2024/01/25 04:42:05;;;;;;;14.18;2.95;;;;;;;7.94;100.00;100574.53;5551154;32;34132;-67
2024/01/25 04:45:08;;;;;;;19.73;4.18;;;;;;;7.89;100.00;100579.44;5550859;32;35044;-65
2024/01/25 04:48:12;;;;;;;20.20;3.53;;;;;;;7.85;100.00;100578.06;5551059;32;34127;-65
2024/01/25 04:51:18;;;;;;;17.70;3.58;;;;;;;7.82;100.00;100581.84;5551019;32;34130;-66
2024/01/25 04:54:21;;;;;;;14.95;3.45;;;;;;;7.84;100.00;100581.69;5551044;32;34123;-67
2024/01/25 04:57:24;;;;;;;16.12;3.28;;;;;;;7.77;100.00;100592.00;5551016;32;34156;-67
2024/01/25 05:00:27;;;;;;;13.50;3.10;;;;;;;7.73;100.00;100592.44;5550939;32;34113;-66
2024/01/25 05:03:30;;;;;;;21.83;3.65;;;;;;;7.71;100.00;100589.09;5550964;32;34659;-65
2024/01/25 05:06:33;;;;;;;14.20;3.75;;;;;;;7.78;100.00;100595.47;5550894;32;33972;-66
2024/01/25 05:09:36;;;;;;;16.10;3.65;;;;;;;7.65;100.00;100593.13;5550699;32;34822;-67
2024/01/25 05:12:39;;;;;;;20.37;3.65;;;;;;;7.76;100.00;100600.06;5550758;32;34142;-66
2024/01/25 05:15:42;;;;;;;17.45;3.75;;;;;;;7.75;100.00;100595.75;5550701;32;34238;-65
2024/01/25 05:18:45;;;;;;;18.08;3.45;;;;;;;7.95;100.00;100592.06;5550851;32;34749;-67
2024/01/25 05:21:48;;;;;;;18.73;3.70;;;;;;;7.90;100.00;100593.47;5550554;32;34106;-66
2024/01/25 05:24:51;;;;;;;14.95;3.33;;;;;;;7.78;100.00;100604.22;5551084;32;34197;-66
2024/01/25 05:27:55;;;;;;;19.02;3.37;;;;;;;7.97;100.00;100584.00;5550694;32;33956;-65
2024/01/25 05:30:58;;;;;;;22.23;3.53;;;;;;;7.99;100.00;100596.06;5549903;32;34100;-65
2024/01/25 05:34:04;;;;;;;21.45;3.70;;;;;;;8.01;100.00;100603.84;5550325;32;34270;-65
2024/01/25 05:37:07;;;;;;;16.12;3.62;;;;;;;8.21;100.00;100611.56;5550448;32;34120;-66
2024/01/25 05:40:11;;;;;;;20.70;4.20;;;;;;;8.20;100.00;100604.59;5550625;32;34424;-65
2024/01/25 05:43:14;;;;;;;16.25;3.33;;;;;;;8.23;100.00;100606.94;5550513;32;34096;-66
2024/01/25 05:46:16;;;;;;;17.15;3.33;;;;;;;8.16;100.00;100616.44;5550279;32;34242;-64
2024/01/25 05:49:19;;;;;;;20.77;3.67;;;;;;;8.07;100.00;100614.69;5550207;32;34184;-65
2024/01/25 05:52:23;;;;;;;21.90;3.80;;;;;;;7.98;100.00;100594.44;5550708;32;34665;-65
2024/01/25 05:55:27;;;;;;;18.83;3.58;;;;;;;8.01;100.00;100614.44;5550308;32;34813;-65
2024/01/25 05:58:30;;;;;;;15.88;3.50;;;;;;;7.96;100.00;100620.16;5550681;32;34101;-67
2024/01/25 06:01:33;;;;;;;16.10;3.55;;;;;;;7.92;100.00;100618.78;5550704;32;34170;-66
2024/01/25 06:04:36;;;;;;;19.58;3.87;;;;;;;7.81;100.00;100622.41;5550360;32;34131;-66
2024/01/25 06:07:40;;;;;;;19.37;4.35;;;;;;;7.91;100.00;100627.66;5550270;32;33712;-65
2024/01/25 06:10:43;;;;;;;20.48;3.97;;;;;;;7.78;100.00;100638.56;5550082;32;34308;-66
2024/01/25 06:13:46;;;;;;;17.98;3.87;;;;;;;7.66;100.00;100634.41;5550003;32;34164;-65
2024/01/25 06:16:49;;;;;;;17.87;3.53;;;;;;;7.53;100.00;100643.63;5549262;32;35441;-65
2024/01/25 06:19:52;;;;;;;24.40;4.03;;;;;;;7.47;100.00;100652.94;5549891;32;34648;-65
2024/01/25 06:22:55;;;;;;;17.00;3.58;;;;;;;7.53;100.00;100660.28;5550017;32;34726;-66
2024/01/25 06:25:58;;;;;;;18.83;3.60;;;;;;;7.57;100.00;100656.41;5549737;32;34092;-66
2024/01/25 06:29:01;;;;;;;17.67;4.15;;;;;;;7.58;100.00;100654.59;5550066;32;34100;-66
2024/01/25 06:32:05;;;;;;;18.40;3.87;;;;;;;7.49;100.00;100644.88;5545652;32;121851;-66
2024/01/25 06:35:15;;;;;;;19.20;4.20;;;;;;;7.43;100.00;100654.19;5549927;32;34068;-66
2024/01/25 06:38:18;;;;;;;15.88;4.12;;;;;;;7.41;100.00;100664.88;5549095;32;34318;-65
2024/01/25 06:41:21;;;;;;;16.67;3.78;;;;;;;7.35;100.00;100656.72;5548946;32;34094;-65
2024/01/25 06:44:24;;;;;;;18.23;4.12;;;;;;;7.43;100.00;100670.87;5548519;32;34002;-66
2024/01/25 06:47:27;;;;;;;18.37;4.10;;;;;;;7.37;100.00;100670.59;5549489;32;34583;-66
2024/01/25 06:50:30;;;;;;;18.30;4.47;;;;;;;7.33;100.00;100671.84;5549463;32;34741;-65
2024/01/25 06:53:33;;;;;;;18.85;4.10;;;;;;;7.41;100.00;100670.16;5550106;32;34107;-65
2024/01/25 06:56:36;;;;;;;18.70;4.20;;;;;;;7.28;100.00;100672.25;5548746;32;34033;-66
2024/01/25 06:59:39;;;;;;;18.05;3.85;;;;;;;7.33;100.00;100663.94;5549104;32;34052;-67
2024/01/25 07:02:42;;;;;;;17.33;4.15;;;;;;;7.32;100.00;100644.63;5549451;32;33957;-65
2024/01/25 07:05:45;;;;;;;15.40;3.83;;;;;;;7.46;100.00;100626.66;5549575;32;34024;-65
2024/01/25 07:08:49;;;;;;;18.87;3.95;;;;;;;7.56;100.00;100617.75;5548853;32;34208;-66
2024/01/25 07:11:52;;;;;;;16.73;3.53;;;;;;;7.69;100.00;100605.09;5549088;32;33974;-66
2024/01/25 07:14:55;;;;;;;15.95;3.58;;;;;;;7.70;100.00;100596.19;5549368;32;34784;-65
2024/01/25 07:17:58;;;;;;;20.62;4.00;;;;;;;7.65;100.00;100577.28;5549273;32;34340;-65
2024/01/25 07:21:02;;;;;;;18.55;4.18;;;;;;;7.70;100.00;100566.28;5549301;32;34083;-65
2024/01/25 07:24:05;;;;;;;19.20;4.03;;;;;;;7.80;100.00;100572.37;5548953;32;34780;-65
2024/01/25 07:27:08;;;;;;;17.15;3.67;;;;;;;7.96;100.00;100574.41;5549397;32;34118;-66
2024/01/25 07:30:12;;;;;;;15.75;3.92;;;;;;;8.09;100.00;100593.37;5548941;32;34756;-66
2024/01/25 07:33:14;;;;;;;20.02;4.28;;;;;;;8.07;100.00;100574.22;5549172;32;34084;-65
2024/01/25 07:36:18;;;;;;;15.52;3.50;;;;;;;8.08;100.00;100575.87;5548966;32;33950;-64
2024/01/25 07:39:20;;;;;;;16.48;3.75;;;;;;;8.09;100.00;100590.75;5549090;32;33986;-65
2024/01/25 07:42:23;;;;;;;18.30;3.80;;;;;;;8.17;100.00;100596.16;5549104;32;33989;-64
2024/01/25 07:45:26;;;;;;;21.20;4.25;;;;;;;8.14;100.00;100612.28;5549073;32;35141;-64
2024/01/25 07:48:29;;;;;;;18.30;3.95;;;;;;;8.13;100.00;100623.84;5548852;32;34318;-65
2024/01/25 07:51:32;;;;;;;21.08;4.03;;;;;;;8.03;100.00;100639.75;5549364;32;34190;-65
2024/01/25 07:54:35;;;;;;;23.05;4.80;;;;;;;8.08;100.00;100641.94;5549357;32;34853;-65
2024/01/25 07:57:38;;;;;;;17.65;3.85;;;;;;;8.07;100.00;100656.97;5551241;32;34169;-66
2024/01/25 08:00:42;;;;;;;16.08;3.60;;;;;;;8.01;100.00;100646.13;5551057;32;34296;-64
2024/01/25 08:03:45;;;;;;;20.73;4.47;;;;;;;8.07;100.00;100640.28;5551130;32;34098;-64
2024/01/25 08:06:48;;;;;;;21.23;4.47;;;;;;;8.17;100.00;100643.72;5551242;32;34195;-66
2024/01/25 08:09:52;;;;;;;19.37;4.10;;;;;;;8.17;100.00;100657.75;5551023;32;34164;-65
2024/01/25 08:12:55;;;;;;;17.27;3.85;;;;;;;8.20;100.00;100668.03;5550468;32;34802;-64
2024/01/25 08:16:11;;;;;;;16.37;4.07;;;;;;;8.21;100.00;100650.37;5551067;32;34046;-66
2024/01/25 08:19:14;;;;;;;15.18;3.60;;;;;;;8.29;100.00;100653.09;5551279;32;34507;-66
2024/01/25 08:22:17;;;;;;;21.83;4.43;;;;;;;8.27;100.00;100655.06;5551426;32;34136;-66
2024/01/25 08:25:25;;;;;;;18.62;3.83;;;;;;;8.25;100.00;100652.56;5551134;32;34321;-65
2024/01/25 08:28:28;;;;;;;20.35;4.45;;;;;;;8.46;97.59;100654.16;5550806;32;34282;-67
2024/01/25 08:31:31;;;;;;;18.00;3.97;;;;;;;8.46;96.60;100643.59;5550763;32;34434;-65
2024/01/25 08:34:34;;;;;;;17.58;4.25;;;;;;;8.49;97.94;100660.00;5550728;32;34468;-65
2024/01/25 08:37:37;;;;;;;19.17;4.10;;;;;;;8.62;95.47;100654.34;5550927;32;34742;-65
2024/01/25 08:40:41;;;;;;;16.58;3.65;;;;;;;8.61;97.23;100647.41;5549838;32;34275;-68
2024/01/25 08:43:44;;;;;;;16.92;3.85;;;;;;;8.78;90.73;100641.28;5550867;32;34065;-64
2024/01/25 08:46:47;;;;;;;17.27;4.10;;;;;;;8.86;90.97;100659.88;5550720;32;34258;-64
2024/01/25 08:49:50;;;;;;;26.27;4.28;;;;;;;8.93;89.43;100644.25;5549911;32;35359;-64
2024/01/25 08:52:53;;;;;;;16.25;3.92;;;;;;;9.02;87.84;100661.88;5550767;32;35060;-64
2024/01/25 08:55:56;;;;;;;23.65;3.85;;;;;;;9.06;89.38;100660.59;5550734;32;34798;-65
2024/01/25 08:58:59;;;;;;;18.12;4.00;;;;;;;9.06;89.96;100668.53;5550792;32;34065;-65
2024/01/25 09:02:02;;;;;;;19.33;4.00;;;;;;;9.05;89.26;100669.53;5550775;32;34036;-66
2024/01/25 09:05:06;;;;;;;20.67;4.28;;;;;;;9.16;86.07;100675.41;5550191;32;34024;-65
2024/01/25 09:08:09;;;;;;;19.35;3.72;;;;;;;9.19;86.69;100674.28;5549903;32;34079;-65
2024/01/25 09:11:12;;;;;;;16.87;4.00;;;;;;;9.23;86.08;100682.75;5550652;32;34143;-64
2024/01/25 09:14:15;;;;;;;14.68;3.50;;;;;;;9.22;85.69;100702.25;5550831;32;34055;-63
2024/01/25 09:17:21;;;;;;;23.55;3.92;;;;;;;9.22;83.75;100704.91;5550485;32;34025;-65
2024/01/25 09:20:25;;;;;;;19.40;3.80;;;;;;;9.22;83.60;100707.56;5550212;32;35230;-65
2024/01/25 09:23:28;;;;;;;18.27;4.18;;;;;;;9.12;84.98;100718.22;5550910;32;34000;-65
2024/01/25 09:26:30;;;;;;;17.98;3.95;;;;;;;9.14;86.43;100706.50;5550408;32;34047;-65
2024/01/25 09:29:33;;;;;;;20.25;4.20;;;;;;;9.20;84.32;100707.69;5550414;32;34951;-67
2024/01/25 09:32:36;;;;;;;16.58;3.58;;;;;;;9.22;83.67;100700.44;5550139;32;34132;-66
2024/01/25 09:35:39;;;;;;;17.10;3.47;;;;;;;9.22;83.83;100705.75;5550281;32;34445;-66
2024/01/25 09:38:43;;;;;;;23.98;3.78;;;;;;;9.30;81.55;100695.22;5550334;32;34038;-67
2024/01/25 09:41:47;;;;;;;23.55;3.95;;;;;;;9.26;81.69;100730.94;5550070;32;34018;-64
2024/01/25 09:44:52;;;;;;;20.33;3.80;;;;;;;9.33;81.04;100715.28;5549991;32;35024;-66
2024/01/25 09:47:54;;;;;;;15.20;3.50;;;;;;;9.27;82.15;100732.59;5549830;32;34060;-65
2024/01/25 09:50:59;;;;;;;21.98;4.65;;;;;;;9.23;81.02;100727.75;5549801;32;34216;-64
2024/01/25 09:54:04;;;;;;;15.15;3.45;;;;;;;9.25;81.89;100718.66;5549907;32;34151;-66
2024/01/25 09:57:17;;;;;;;18.58;3.60;;;;;;;9.29;82.00;100735.09;5550170;32;34790;-65
2024/01/25 10:00:21;;;;;;;18.12;3.72;;;;;;;9.22;83.35;100763.16;5550185;32;34899;-65
2024/01/25 10:03:23;;;;;;;17.00;3.70;;;;;;;9.24;85.15;100743.50;5550146;32;34002;-65
2024/01/25 10:06:26;;;;;;;17.92;3.55;;;;;;;9.19;85.37;100729.88;5550072;32;34021;-64
2024/01/25 10:09:39;;;;;;;18.20;3.92;;;;;;;9.24;84.98;100729.44;5549377;32;34000;-65
2024/01/25 10:12:43;;;;;;;14.43;3.58;;;;;;;9.29;83.58;100738.59;5549965;32;34322;-66
2024/01/25 10:15:48;;;;;;;18.30;3.47;;;;;;;9.30;83.22;100734.94;5549883;32;34070;-64
2024/01/25 10:18:52;;;;;;;16.77;3.62;;;;;;;9.33;83.05;100728.53;5549865;32;34133;-65
2024/01/25 10:21:57;;;;;;;25.02;4.28;;;;;;;9.36;82.67;100723.75;5549861;32;34234;-65
2024/01/25 10:25:01;;;;;;;24.60;4.10;;;;;;;9.49;80.39;100723.34;5549785;32;35307;-65
2024/01/25 10:28:07;;;;;;;24.15;4.22;;;;;;;9.38;81.21;100727.09;5550107;32;34659;-65
2024/01/25 10:31:11;;;;;;;17.90;3.65;;;;;;;9.42;80.64;100703.78;5549308;32;35104;-65
2024/01/25 10:34:15;;;;;;;18.98;3.97;;;;;;;9.50;80.17;100714.44;5549490;32;34112;-65
2024/01/25 10:37:20;;;;;;;16.27;3.70;;;;;;;9.45;79.95;100700.81;5549718;32;34446;-64
2024/01/25 10:40:24;;;;;;;22.40;3.78;;;;;;;9.44;80.25;100697.31;5549089;32;34079;-64
2024/01/25 10:43:30;;;;;;;16.98;3.95;;;;;;;9.57;79.49;100703.09;5549548;32;34027;-65
2024/01/25 10:46:37;;;;;;;18.42;3.85;;;;;;;9.55;79.30;100713.00;5549556;32;34005;-65
2024/01/25 10:49:41;;;;;;;19.23;3.40;;;;;;;9.55;79.09;100704.22;5549905;32;34779;-66
2024/01/25 10:52:46;;;;;;;19.48;3.72;;;;;;;9.57;78.49;100700.44;5551167;32;34469;-65
2024/01/25 10:55:50;;;;;;;17.65;4.18;;;;;;;9.53;80.25;100707.03;5549841;32;34031;-65
2024/01/25 10:58:53;;;;;;;14.13;3.15;;;;;;;9.42;78.24;100691.37;5549579;32;34825;-64
2024/01/25 11:01:56;;;;;;;17.25;3.33;;;;;;;9.42;77.44;100701.97;5549728;32;34117;-65
2024/01/25 11:05:01;;;;;;;18.87;4.03;;;;;;;9.53;78.80;100703.53;5549026;32;34039;-65
2024/01/25 11:08:04;;;;;;;34.40;3.85;;;;;;;9.51;77.30;100726.69;5548963;32;34090;-66
2024/01/25 11:11:10;;;;;;;17.60;3.62;;;;;;;9.41;76.61;100702.94;5549971;32;33913;-64
2024/01/25 11:14:16;;;;;;;17.62;3.55;;;;;;;9.49;76.80;100697.69;5549509;32;34056;-64
2024/01/25 11:17:20;;;;;;;20.65;4.35;;;;;;;9.49;75.72;100703.00;5549641;32;34076;-64
2024/01/25 11:20:25;;;;;;;17.55;4.07;;;;;;;9.56;74.45;100711.19;5549355;32;34225;-63
2024/01/25 11:23:32;;;;;;;18.90;3.80;;;;;;;9.45;74.74;100695.50;5549109;32;34777;-66
2024/01/25 11:26:35;;;;;;;18.77;3.70;;;;;;;9.52;73.62;100699.22;5548976;32;34111;-63
2024/01/25 11:29:40;;;;;;;15.32;3.72;;;;;;;9.44;74.34;100696.53;5548543;32;34105;-64
2024/01/25 11:32:48;;;;;;;18.05;3.80;;;;;;;9.50;73.91;100686.12;5549024;32;33378;-64
2024/01/25 11:35:55;;;;;;;16.77;4.07;;;;;;;9.56;75.20;100700.59;5549121;32;34218;-63
2024/01/25 11:38:58;;;;;;;15.98;3.85;;;;;;;9.55;75.61;100701.56;5549143;32;34001;-64
2024/01/25 11:42:00;;;;;;;19.70;4.03;;;;;;;9.50;74.87;100691.44;5535587;32;33996;-66
2024/01/25 11:45:07;;;;;;;24.60;4.55;;;;;;;9.51;74.39;100686.97;5549215;32;32692;-64
2024/01/25 11:48:10;;;;;;;15.30;3.40;;;;;;;9.63;73.72;100695.50;5548731;32;34085;-66
2024/01/25 11:51:14;;;;;;;17.60;4.25;;;;;;;9.51;72.42;100681.66;5548925;32;34016;-65
2024/01/25 11:54:18;;;;;;;18.65;3.83;;;;;;;9.63;72.82;100674.31;5548553;32;34974;-64
2024/01/25 11:57:21;;;;;;;19.98;3.67;;;;;;;9.59;74.61;100677.25;5548421;32;35032;-64
2024/01/25 12:00:24;;;;;;;15.45;3.58;;;;;;;9.59;72.72;100685.19;5548593;32;34023;-66
2024/01/25 12:03:27;;;;;;;20.33;3.65;;;;;;;9.60;72.23;100701.94;5548560;32;35018;-65
2024/01/25 12:06:30;;;;;;;15.43;3.40;;;;;;;9.42;71.49;100693.19;5547995;32;34276;-65
2024/01/25 12:09:33;;;;;;;14.98;3.40;;;;;;;9.62;71.02;100683.25;5548470;32;34698;-64
2024/01/25 12:12:40;;;;;;;15.57;3.67;;;;;;;9.67;69.19;100703.00;5548425;32;34497;-64
2024/01/25 12:15:43;;;;;;;13.60;3.08;;;;;;;9.52;70.59;100699.22;5548376;32;34606;-64
2024/01/25 12:18:45;;;;;;;15.48;3.78;;;;;;;9.64;69.56;100697.16;5548124;32;34038;-66
2024/01/25 12:21:49;;;;;;;16.02;3.60;;;;;;;10.16;67.34;100720.09;5548271;32;33991;-66
2024/01/25 12:24:55;;;;;;;16.67;3.47;;;;;;;10.28;67.80;100733.91;5547899;32;34244;-65
2024/01/25 12:28:04;;;;;;;16.90;3.78;;;;;;;10.25;66.39;100727.09;5548060;32;34691;-65
2024/01/25 12:31:08;;;;;;;15.10;3.67;;;;;;;10.58;65.84;100708.69;5547784;32;34678;-66
2024/01/25 12:34:15;;;;;;;18.10;3.70;;;;;;;10.32;65.35;100712.22;5547307;32;34131;-67
2024/01/25 12:37:19;;;;;;;19.58;3.83;;;;;;;10.31;65.29;100696.47;5548196;32;34257;-65
2024/01/25 12:40:22;;;;;;;26.83;4.43;;;;;;;10.19;65.34;100713.62;5547933;32;33973;-65
2024/01/25 12:43:25;;;;;;;17.42;3.67;;;;;;;10.11;66.06;100708.25;5550521;32;34115;-66
2024/01/25 12:46:29;;;;;;;20.50;3.85;;;;;;;9.94;66.20;100710.81;5550901;32;33940;-66
2024/01/25 12:49:33;;;;;;;16.48;3.25;;;;;;;10.18;65.45;100702.19;5550399;32;35008;-65
2024/01/25 12:52:36;;;;;;;18.30;3.55;;;;;;;10.05;65.27;100685.84;5550749;32;34168;-66
2024/01/25 12:55:39;;;;;;;15.10;3.37;;;;;;;10.15;65.07;100654.75;5550954;32;34277;-67
2024/01/25 12:58:42;;;;;;;15.55;3.30;;;;;;;10.06;64.87;100673.44;5550803;32;34130;-66
2024/01/25 13:01:45;;;;;;;19.37;3.15;;;;;;;10.00;65.09;100653.69;5550662;32;34132;-66
2024/01/25 13:04:50;;;;;;;19.23;3.87;;;;;;;9.91;65.17;100671.37;5550023;32;34038;-65
2024/01/25 13:07:53;;;;;;;16.95;3.42;;;;;;;9.98;65.13;100669.75;5550967;32;34013;-65
2024/01/25 13:10:56;;;;;;;14.95;3.37;;;;;;;9.88;64.79;100671.66;5550452;32;34968;-67
2024/01/25 13:13:59;;;;;;;16.90;3.40;;;;;;;9.72;65.29;100653.03;5550388;32;34176;-65
2024/01/25 13:17:02;;;;;;;14.65;2.92;;;;;;;9.77;66.50;100656.03;5550304;32;34118;-64
2024/01/25 13:20:08;;;;;;;24.77;3.60;;;;;;;9.85;66.75;100660.56;5550899;32;34071;-65
2024/01/25 13:23:11;;;;;;;14.00;3.42;;;;;;;9.63;67.64;100658.44;5550323;32;34844;-64
2024/01/25 13:26:14;;;;;;;21.25;3.58;;;;;;;9.62;68.13;100651.47;5549549;32;34288;-65
2024/01/25 13:29:17;;;;;;;14.02;3.42;;;;;;;9.58;68.36;100656.25;5550364;32;33902;-65
2024/01/25 13:32:20;;;;;;;19.37;3.92;;;;;;;9.47;70.03;100638.78;5550591;32;33993;-67
2024/01/25 13:35:23;;;;;;;21.55;3.78;;;;;;;9.39;69.48;100651.13;5550264;32;34667;-65
2024/01/25 13:38:27;;;;;;;16.27;3.75;;;;;;;9.51;69.18;100665.78;5550418;32;34015;-64
2024/01/25 13:41:30;;;;;;;15.05;3.28;;;;;;;9.52;69.88;100676.22;5550519;32;34153;-64
2024/01/25 13:44:32;;;;;;;13.30;3.12;;;;;;;9.45;70.16;100674.31;5550112;32;34496;-64
2024/01/25 13:47:35;;;;;;;19.17;3.65;;;;;;;9.27;70.21;100663.75;5549459;32;34067;-64
2024/01/25 13:50:38;;;;;;;16.98;3.62;;;;;;;9.22;70.21;100681.91;5550428;32;32746;-63
2024/01/25 13:53:41;;;;;;;14.10;3.15;;;;;;;9.20;71.40;100685.72;5549585;32;35180;-64
2024/01/25 13:56:44;;;;;;;19.33;4.05;;;;;;;9.21;72.17;100690.84;5550113;32;34351;-65
2024/01/25 13:59:47;;;;;;;14.75;3.37;;;;;;;9.30;71.74;100707.63;5550240;32;34584;-65
2024/01/25 14:02:49;;;;;;;16.10;3.90;;;;;;;9.42;71.15;100709.91;5549449;32;34154;-65
2024/01/25 14:05:52;;;;;;;18.58;3.83;;;;;;;9.40;71.03;100711.84;5549895;32;34115;-64